createdAt,value
2022-11-29T00:01:09.890Z,1.80
2022-11-29T00:03:37.469Z,1.83
2022-11-29T00:06:13.334Z,2.85
2022-11-29T00:08:41.530Z,1.80
2022-11-29T00:11:42.356Z,2.40
2022-11-29T00:14:11.946Z,2.45
2022-11-29T00:16:41.993Z,1.80
2022-11-29T00:19:10.514Z,2.25
2022-11-29T00:21:37.230Z,2.15
2022-11-29T00:24:04.588Z,1.45
2022-11-29T00:26:31.292Z,2.30
2022-11-29T00:28:59.113Z,2.35
2022-11-29T00:31:30.337Z,2.40
2022-11-29T00:34:01.999Z,1.73
2022-11-29T00:38:55.524Z,2.30
2022-11-29T00:41:22.226Z,2.45
2022-11-29T00:43:48.950Z,2.35
2022-11-29T00:46:15.739Z,2.50
2022-11-29T00:48:42.471Z,2.47
2022-11-29T00:51:09.552Z,2.72
2022-11-29T00:53:37.349Z,2.28
2022-11-29T00:56:05.059Z,1.80
2022-11-29T00:58:32.860Z,1.88
2022-11-29T01:00:59.643Z,2.30
2022-11-29T01:03:26.506Z,2.45
2022-11-29T01:05:53.245Z,2.30
2022-11-29T01:08:20.126Z,1.67
2022-11-29T01:10:46.872Z,2.03
2022-11-29T01:13:13.650Z,2.00
2022-11-29T01:15:40.570Z,2.20
2022-11-29T01:18:07.300Z,2.40
2022-11-29T01:20:34.022Z,2.60
2022-11-29T01:23:00.771Z,2.60
2022-11-29T01:25:27.525Z,2.33
2022-11-29T01:27:54.445Z,1.77
2022-11-29T01:30:21.423Z,2.10
2022-11-29T01:32:48.153Z,2.30
2022-11-29T01:35:14.898Z,2.33
2022-11-29T01:37:41.663Z,2.00
2022-11-29T01:40:08.795Z,2.38
2022-11-29T01:42:35.495Z,2.05
2022-11-29T01:45:12.886Z,2.20
2022-11-29T01:47:45.973Z,2.75
2022-11-29T01:50:13.352Z,1.83
2022-11-29T01:52:40.903Z,2.00
2022-11-29T01:55:08.636Z,1.58
2022-11-29T01:57:38.523Z,2.15
2022-11-29T02:00:12.251Z,1.92
2022-11-29T02:02:53.942Z,1.70
2022-11-29T02:05:21.399Z,1.52
2022-11-29T02:07:52.396Z,1.77
2022-11-29T02:10:24.362Z,2.17
2022-11-29T02:13:08.919Z,1.38
2022-11-29T02:15:38.669Z,2.10
2022-11-29T02:18:11.466Z,1.77
2022-11-29T02:20:55.335Z,2.30
2022-11-29T02:23:43.000Z,2.47
2022-11-29T02:26:21.624Z,2.85
2022-11-29T02:29:26.010Z,1.60
2022-11-29T02:32:15.763Z,1.70
2022-11-29T02:35:21.427Z,1.38
2022-11-29T02:38:22.600Z,1.67
2022-11-29T02:41:15.301Z,1.85
2022-11-29T02:44:28.626Z,1.65
2022-11-29T02:47:09.230Z,1.38
2022-11-29T02:49:55.759Z,1.60
2022-11-29T02:52:30.300Z,1.60
2022-11-29T02:55:10.521Z,2.00
2022-11-29T02:57:53.502Z,2.15
2022-11-29T03:00:21.696Z,1.75
2022-11-29T03:02:51.506Z,1.60
2022-11-29T03:05:21.559Z,1.27
2022-11-29T03:08:25.837Z,1.80
2022-11-29T03:11:12.787Z,1.88
2022-11-29T03:14:05.413Z,3.40
2022-11-29T03:16:57.051Z,3.55
2022-11-29T03:19:37.089Z,3.28
2022-11-29T03:22:25.583Z,3.65
2022-11-29T03:24:58.390Z,3.50
2022-11-29T03:27:37.966Z,4.05
2022-11-29T03:30:08.324Z,3.97
2022-11-29T03:32:40.084Z,3.60
2022-11-29T03:37:43.030Z,3.50
2022-11-29T03:40:24.741Z,2.90
2022-11-29T03:42:58.901Z,2.80
2022-11-29T03:45:28.737Z,3.08
2022-11-29T03:48:14.382Z,2.72
2022-11-29T03:51:07.318Z,2.60
2022-11-29T03:53:41.958Z,3.22
2022-11-29T03:56:44.488Z,3.78
2022-11-29T03:59:16.396Z,4.78
2022-11-29T04:02:20.033Z,5.10
2022-11-29T04:04:52.914Z,5.97
2022-11-29T04:07:50.079Z,4.72
2022-11-29T04:10:49.174Z,3.72
2022-11-29T04:13:42.931Z,4.32
2022-11-29T04:16:26.956Z,3.78
2022-11-29T04:19:22.236Z,2.90
2022-11-29T04:22:20.549Z,3.00
2022-11-29T04:24:58.973Z,3.85
2022-11-29T04:27:58.841Z,3.65
2022-11-29T04:30:26.903Z,4.20
2022-11-29T04:33:14.027Z,3.67
2022-11-29T04:36:21.971Z,4.20
2022-11-29T04:39:11.860Z,3.90
2022-11-29T04:42:13.245Z,4.60
2022-11-29T04:44:55.426Z,6.88
2022-11-29T04:47:50.966Z,7.53
2022-11-29T04:50:33.145Z,6.88
2022-11-29T04:53:06.580Z,6.95
2022-11-29T04:56:09.974Z,6.93
2022-11-29T04:58:54.953Z,4.38
2022-11-29T05:01:43.572Z,3.38
2022-11-29T05:04:19.480Z,4.18
2022-11-29T05:07:14.563Z,3.30
2022-11-29T05:09:47.353Z,2.50
2022-11-29T05:12:28.843Z,1.75
2022-11-29T05:15:04.633Z,1.92
2022-11-29T05:17:56.357Z,1.30
2022-11-29T05:20:47.703Z,1.25
2022-11-29T05:23:48.451Z,9.02
2022-11-29T05:26:31.209Z,3.20
2022-11-29T05:29:03.835Z,2.63
2022-11-29T05:31:56.601Z,2.20
2022-11-29T05:34:34.557Z,2.97
2022-11-29T05:37:35.265Z,3.88
2022-11-29T05:40:17.236Z,4.65
2022-11-29T05:43:12.802Z,3.88
2022-11-29T05:45:52.412Z,3.80
2022-11-29T05:48:54.672Z,4.40
2022-11-29T05:51:44.440Z,3.92
2022-11-29T05:54:30.880Z,4.47
2022-11-29T05:57:26.510Z,4.57
2022-11-29T05:59:55.631Z,4.70
2022-11-29T06:02:44.353Z,4.60
2022-11-29T06:05:20.546Z,4.38
2022-11-29T06:07:58.774Z,4.70
2022-11-29T06:10:29.904Z,4.18
2022-11-29T06:13:16.093Z,4.30
2022-11-29T06:16:04.200Z,3.80
2022-11-29T06:18:33.979Z,5.13
2022-11-29T06:21:34.437Z,3.78
2022-11-29T06:24:19.431Z,3.67
2022-11-29T06:27:14.815Z,3.70
2022-11-29T06:29:59.424Z,3.95
2022-11-29T06:32:36.856Z,4.00
2022-11-29T06:35:10.498Z,3.75
2022-11-29T06:37:41.112Z,4.60
2022-11-29T06:40:14.460Z,3.40
2022-11-29T06:42:41.311Z,4.68
2022-11-29T06:45:12.211Z,3.92
2022-11-29T06:47:42.157Z,3.75
2022-11-29T06:50:24.818Z,6.22
2022-11-29T06:53:08.184Z,7.07
2022-11-29T06:55:49.133Z,5.95
2022-11-29T06:58:36.401Z,5.32
2022-11-29T07:01:25.834Z,7.00
2022-11-29T07:04:16.779Z,7.15
2022-11-29T07:06:43.873Z,7.05
2022-11-29T07:09:16.805Z,4.50
2022-11-29T07:11:44.453Z,4.45
2022-11-29T07:14:11.466Z,4.53
2022-11-29T07:16:58.413Z,4.95
2022-11-29T07:19:32.376Z,4.95
2022-11-29T07:22:36.701Z,4.57
2022-11-29T07:25:25.837Z,4.10
2022-11-29T07:28:19.039Z,3.70
2022-11-29T07:31:12.120Z,4.28
2022-11-29T07:34:06.710Z,4.57
2022-11-29T07:36:48.435Z,5.70
2022-11-29T07:39:33.073Z,4.10
2022-11-29T07:42:15.127Z,3.03
2022-11-29T07:45:07.593Z,4.10
2022-11-29T07:47:35.960Z,3.22
2022-11-29T07:50:03.564Z,2.28
2022-11-29T07:52:30.379Z,2.00
2022-11-29T07:54:57.203Z,2.30
2022-11-29T07:57:23.913Z,1.75
2022-11-29T07:59:50.599Z,1.80
2022-11-29T08:02:29.927Z,2.08
2022-11-29T08:04:56.855Z,1.58
2022-11-29T08:07:24.197Z,2.10
2022-11-29T08:09:51.067Z,1.50
2022-11-29T08:12:17.776Z,1.58
2022-11-29T08:14:44.654Z,1.83
2022-11-29T08:17:11.551Z,1.73
2022-11-29T08:19:38.299Z,1.77
2022-11-29T08:22:05.097Z,1.35
2022-11-29T08:24:31.794Z,1.40
2022-11-29T08:26:58.520Z,1.40
2022-11-29T08:29:25.268Z,1.95
2022-11-29T08:31:53.574Z,1.40
2022-11-29T08:34:21.755Z,2.22
2022-11-29T08:36:49.086Z,1.40
2022-11-29T08:39:16.368Z,1.90
2022-11-29T08:41:43.213Z,1.77
2022-11-29T08:44:09.927Z,1.75
2022-11-29T08:46:55.356Z,1.70
2022-11-29T08:49:22.057Z,2.20
2022-11-29T08:51:52.379Z,2.22
2022-11-29T08:54:19.079Z,2.30
2022-11-29T08:59:32.494Z,1.77
2022-11-29T09:01:59.288Z,1.55
2022-11-29T09:04:26.021Z,1.58
2022-11-29T09:06:52.788Z,1.80
2022-11-29T09:09:19.500Z,1.60
2022-11-29T09:11:49.404Z,1.30
2022-11-29T09:14:17.647Z,1.10
2022-11-29T09:16:44.517Z,2.17
2022-11-29T09:19:14.362Z,1.40
2022-11-29T09:21:41.191Z,1.70
2022-11-29T09:24:09.246Z,1.58
2022-11-29T09:26:37.920Z,2.13
2022-11-29T09:29:06.530Z,1.40
2022-11-29T09:31:34.503Z,2.03
2022-11-29T09:34:01.427Z,2.45
2022-11-29T09:36:30.065Z,1.80
2022-11-29T09:39:02.839Z,1.40
2022-11-29T09:41:51.253Z,2.17
2022-11-29T09:44:24.806Z,1.90
2022-11-29T09:47:05.699Z,1.95
2022-11-29T09:49:52.322Z,1.63
2022-11-29T09:52:41.692Z,2.17
2022-11-29T09:55:26.473Z,1.90
2022-11-29T09:57:56.995Z,2.00
2022-11-29T10:00:24.001Z,1.75
2022-11-29T10:02:55.389Z,2.03
2022-11-29T10:05:24.079Z,2.25
2022-11-29T10:08:07.827Z,1.38
2022-11-29T10:10:43.144Z,1.63
2022-11-29T10:13:19.184Z,1.92
2022-11-29T10:15:50.738Z,1.55
2022-11-29T10:18:38.334Z,2.00
2022-11-29T10:21:12.701Z,1.67
2022-11-29T10:23:47.329Z,1.58
2022-11-29T10:26:14.642Z,2.45
2022-11-29T10:28:48.546Z,1.73
2022-11-29T10:31:20.557Z,1.70
2022-11-29T10:33:48.888Z,1.30
2022-11-29T10:36:40.465Z,2.03
2022-11-29T10:39:25.389Z,1.50
2022-11-29T10:41:56.514Z,1.48
2022-11-29T10:44:25.095Z,1.70
2022-11-29T10:46:53.283Z,1.38
2022-11-29T10:49:24.242Z,1.45
2022-11-29T10:51:50.964Z,1.50
2022-11-29T10:54:38.347Z,1.30
2022-11-29T10:57:17.175Z,1.98
2022-11-29T11:00:04.450Z,1.05
2022-11-29T11:02:32.196Z,1.10
2022-11-29T11:05:00.477Z,1.20
2022-11-29T11:07:35.596Z,0.85
2022-11-29T11:10:05.927Z,0.80
2022-11-29T11:12:34.454Z,0.90
2022-11-29T11:15:28.559Z,0.70
2022-11-29T11:18:00.752Z,1.10
2022-11-29T11:20:30.614Z,0.98
2022-11-29T11:23:00.925Z,1.00
2022-11-29T11:25:35.047Z,1.40
2022-11-29T11:28:20.381Z,1.08
2022-11-29T11:31:08.591Z,1.10
2022-11-29T11:33:39.188Z,0.80
2022-11-29T11:36:13.215Z,1.65
2022-11-29T11:39:09.226Z,1.30
2022-11-29T11:42:02.270Z,1.20
2022-11-29T11:44:48.804Z,1.10
2022-11-29T11:47:24.225Z,1.45
2022-11-29T11:49:59.990Z,1.13
2022-11-29T11:52:29.586Z,1.20
2022-11-29T11:55:02.018Z,1.45
2022-11-29T11:57:30.066Z,1.70
2022-11-29T12:00:03.414Z,1.30
2022-11-29T12:02:40.721Z,1.30
2022-11-29T12:05:18.383Z,1.17
2022-11-29T12:08:07.816Z,1.25
2022-11-29T12:10:37.612Z,1.15
2022-11-29T12:13:04.963Z,1.05
2022-11-29T12:15:38.331Z,1.20
2022-11-29T12:18:32.669Z,1.38
2022-11-29T12:21:13.472Z,1.20
2022-11-29T12:23:53.504Z,0.90
2022-11-29T12:26:55.244Z,1.20
2022-11-29T12:29:15.137Z,0.90
2022-11-29T12:31:55.075Z,1.40
2022-11-29T12:34:51.377Z,1.17
2022-11-29T12:37:36.128Z,1.70
2022-11-29T12:40:12.683Z,1.33
2022-11-29T12:43:03.333Z,1.40
2022-11-29T12:45:36.431Z,1.90
2022-11-29T12:48:08.988Z,1.70
2022-11-29T12:51:01.664Z,1.45
2022-11-29T12:54:06.419Z,1.90
2022-11-29T12:57:11.818Z,1.83
2022-11-29T12:59:42.009Z,1.30
2022-11-29T13:02:26.568Z,1.60
2022-11-29T13:05:00.029Z,1.30
2022-11-29T13:07:56.120Z,1.30
2022-11-29T13:10:53.308Z,1.25
2022-11-29T13:13:38.835Z,1.13
2022-11-29T13:16:42.927Z,1.35
2022-11-29T13:19:21.328Z,1.55
2022-11-29T13:22:15.806Z,1.27
2022-11-29T13:24:50.809Z,1.63
2022-11-29T13:27:38.257Z,1.63
2022-11-29T13:30:05.798Z,1.30
2022-11-29T13:33:04.787Z,1.40
2022-11-29T13:35:48.956Z,0.90
2022-11-29T13:38:20.959Z,0.82
2022-11-29T13:41:18.278Z,0.82
2022-11-29T13:43:53.855Z,1.00
2022-11-29T13:46:51.956Z,1.40
2022-11-29T13:49:49.809Z,1.63
2022-11-29T13:52:27.675Z,1.63
2022-11-29T13:55:12.794Z,2.55
2022-11-29T13:58:16.787Z,2.20
2022-11-29T14:00:44.317Z,2.42
2022-11-29T14:03:23.391Z,2.05
2022-11-29T14:05:54.660Z,2.33
2022-11-29T14:08:27.396Z,1.85
2022-11-29T14:11:04.851Z,1.70
2022-11-29T14:13:38.432Z,1.45
2022-11-29T14:16:07.210Z,1.73
2022-11-29T14:18:37.093Z,1.38
2022-11-29T14:21:05.030Z,1.70
2022-11-29T14:23:43.674Z,1.90
2022-11-29T14:26:10.425Z,2.25
2022-11-29T14:28:40.915Z,3.65
2022-11-29T14:31:08.675Z,2.72
2022-11-29T14:33:41.608Z,2.83
2022-11-29T14:36:25.311Z,3.13
2022-11-29T14:39:13.845Z,2.70
2022-11-29T14:41:55.661Z,2.08
2022-11-29T14:47:30.041Z,2.80
2022-11-29T14:49:58.987Z,2.63
2022-11-29T14:52:37.865Z,2.55
2022-11-29T14:55:04.767Z,2.78
2022-11-29T14:57:50.117Z,2.83
2022-11-29T15:00:28.737Z,3.20
2022-11-29T15:03:03.546Z,3.22
2022-11-29T15:05:34.729Z,3.42
2022-11-29T15:08:34.891Z,2.97
2022-11-29T15:11:10.179Z,2.88
2022-11-29T15:13:39.765Z,3.22
2022-11-29T15:16:13.019Z,4.03
2022-11-29T15:18:54.719Z,3.63
2022-11-29T15:21:52.384Z,3.15
2022-11-29T15:24:19.851Z,3.10
2022-11-29T15:27:02.473Z,2.97
2022-11-29T15:29:30.919Z,2.87
2022-11-29T15:32:03.552Z,2.85
2022-11-29T15:34:50.481Z,2.90
2022-11-29T15:37:32.169Z,4.63
2022-11-29T15:40:18.415Z,4.32
2022-11-29T15:43:12.632Z,3.92
2022-11-29T15:45:39.991Z,3.40
2022-11-29T15:48:31.240Z,3.55
2022-11-29T15:51:03.420Z,3.45
2022-11-29T15:54:12.840Z,2.83
2022-11-29T15:56:45.146Z,3.05
2022-11-29T15:59:32.407Z,3.30
2022-11-29T16:02:06.105Z,3.40
2022-11-29T16:04:33.531Z,3.40
2022-11-29T16:07:00.514Z,4.25
2022-11-29T16:09:40.867Z,4.28
2022-11-29T16:12:13.806Z,3.60
2022-11-29T16:14:58.833Z,3.60
2022-11-29T16:17:31.161Z,4.40
2022-11-29T16:20:19.298Z,3.65
2022-11-29T16:22:46.143Z,4.93
2022-11-29T16:25:19.671Z,5.03
2022-11-29T16:27:46.833Z,8.48
2022-11-29T16:30:22.445Z,5.55
2022-11-29T16:33:21.368Z,6.85
2022-11-29T16:35:48.673Z,7.95
2022-11-29T16:38:20.714Z,7.57
2022-11-29T16:41:19.729Z,8.57
2022-11-29T16:43:56.087Z,7.13
2022-11-29T16:46:22.988Z,7.82
2022-11-29T16:48:50.323Z,8.20
2022-11-29T16:51:24.797Z,7.57
2022-11-29T16:53:53.707Z,7.93
2022-11-29T16:56:25.833Z,6.93
2022-11-29T16:59:25.437Z,7.38
2022-11-29T17:01:48.883Z,5.63
2022-11-29T17:04:24.348Z,5.93
2022-11-29T17:06:55.922Z,6.53
2022-11-29T17:09:25.989Z,6.88
2022-11-29T17:11:53.363Z,5.65
2022-11-29T17:14:20.111Z,6.15
2022-11-29T17:16:50.141Z,5.43
2022-11-29T17:19:17.718Z,4.50
2022-11-29T17:21:44.903Z,3.22
2022-11-29T17:24:13.887Z,5.43
2022-11-29T17:26:41.511Z,5.10
2022-11-29T17:29:10.502Z,4.97
2022-11-29T17:31:37.808Z,4.55
2022-11-29T17:34:05.124Z,4.65
2022-11-29T17:36:32.003Z,3.20
2022-11-29T17:38:59.919Z,2.50
2022-11-29T17:41:27.843Z,2.30
2022-11-29T17:43:56.277Z,3.78
2022-11-29T17:46:28.608Z,2.38
2022-11-29T17:48:58.050Z,3.05
2022-11-29T17:54:12.413Z,2.22
2022-11-29T17:56:39.261Z,2.35
2022-11-29T17:59:06.194Z,2.58
2022-11-29T18:01:34.835Z,2.17
2022-11-29T18:04:03.400Z,2.40
2022-11-29T18:06:36.221Z,2.45
2022-11-29T18:09:04.726Z,3.00
2022-11-29T18:11:46.464Z,4.10
2022-11-29T18:14:16.536Z,2.67
2022-11-29T18:16:45.390Z,3.15
2022-11-29T18:19:15.026Z,3.50
2022-11-29T18:21:42.130Z,2.75
2022-11-29T18:24:09.244Z,3.22
2022-11-29T18:26:37.647Z,2.33
2022-11-29T18:29:05.759Z,2.67
2022-11-29T18:31:35.126Z,2.58
2022-11-29T18:34:06.209Z,3.20
2022-11-29T18:36:35.335Z,4.15
2022-11-29T18:39:08.584Z,2.83
2022-11-29T18:41:36.426Z,3.47
2022-11-29T18:44:08.471Z,4.07
2022-11-29T18:46:37.779Z,3.70
2022-11-29T18:49:06.667Z,4.38
2022-11-29T18:51:38.079Z,4.45
2022-11-29T18:54:05.663Z,4.25
2022-11-29T18:56:34.610Z,4.65
2022-11-29T18:59:05.932Z,4.00
2022-11-29T19:01:34.646Z,5.68
2022-11-29T19:04:02.168Z,4.10
2022-11-29T19:06:38.902Z,4.90
2022-11-29T19:09:13.596Z,5.03
2022-11-29T19:11:40.844Z,5.95
2022-11-29T19:14:11.577Z,11.25
2022-11-29T19:16:41.129Z,7.40
2022-11-29T19:19:08.093Z,4.93
2022-11-29T19:21:34.834Z,4.70
2022-11-29T19:24:04.093Z,4.20
2022-11-29T19:26:32.586Z,6.38
2022-11-29T19:29:00.696Z,4.93
2022-11-29T19:31:27.849Z,5.63
2022-11-29T19:33:55.822Z,4.25
2022-11-29T19:36:25.300Z,5.78
2022-11-29T19:38:54.054Z,6.72
2022-11-29T19:41:24.570Z,5.00
2022-11-29T19:43:51.732Z,3.63
2022-11-29T19:46:21.457Z,3.13
2022-11-29T19:48:48.348Z,5.07
2022-11-29T19:51:18.896Z,6.25
2022-11-29T19:53:46.170Z,4.30
2022-11-29T19:56:15.797Z,5.20
2022-11-29T19:58:43.850Z,4.97
2022-11-29T20:01:16.921Z,2.85
2022-11-29T20:03:45.057Z,4.13
2022-11-29T20:06:13.593Z,4.10
2022-11-29T20:08:40.875Z,3.33
2022-11-29T20:11:11.122Z,3.85
2022-11-29T20:13:40.105Z,4.88
2022-11-29T20:16:10.447Z,4.13
2022-11-29T20:18:40.255Z,4.53
2022-11-29T20:21:10.794Z,4.22
2022-11-29T20:23:38.819Z,5.40
2022-11-29T20:26:08.032Z,5.00
2022-11-29T20:28:35.659Z,4.47
2022-11-29T20:31:06.573Z,4.88
2022-11-29T20:33:33.681Z,4.75
2022-11-29T20:36:13.370Z,4.90
2022-11-29T20:38:55.296Z,4.70
2022-11-29T20:43:56.356Z,5.72
2022-11-29T20:46:25.608Z,5.82
2022-11-29T20:48:56.056Z,5.65
2022-11-29T20:51:28.574Z,6.60
2022-11-29T20:53:55.452Z,5.70
2022-11-29T20:56:22.148Z,6.18
2022-11-29T20:58:48.943Z,7.57
2022-11-29T21:01:15.978Z,7.05
2022-11-29T21:03:43.072Z,5.30
2022-11-29T21:06:10.132Z,6.47
2022-11-29T21:08:37.088Z,5.13
2022-11-29T21:11:06.818Z,5.72
2022-11-29T21:13:34.160Z,5.38
2022-11-29T21:16:01.415Z,6.57
2022-11-29T21:18:32.315Z,6.82
2022-11-29T21:21:10.968Z,7.07
2022-11-29T21:23:46.808Z,5.45
2022-11-29T21:26:20.337Z,5.75
2022-11-29T21:28:57.518Z,6.80
2022-11-29T21:31:25.935Z,6.25
2022-11-29T21:33:53.067Z,5.30
2022-11-29T21:36:19.895Z,6.78
2022-11-29T21:38:53.935Z,6.55
2022-11-29T21:41:22.193Z,5.93
2022-11-29T21:46:35.914Z,6.03
2022-11-29T21:49:02.725Z,5.90
2022-11-29T21:51:29.418Z,6.47
2022-11-29T21:53:56.112Z,6.80
2022-11-29T21:56:22.868Z,6.80
2022-11-29T21:58:49.599Z,6.68
2022-11-29T22:01:19.553Z,6.45
2022-11-29T22:03:47.017Z,5.07
2022-11-29T22:06:18.738Z,8.25
2022-11-29T22:11:17.233Z,7.22
2022-11-29T22:16:30.697Z,7.22
2022-11-29T22:18:57.546Z,7.38
2022-11-29T22:21:26.429Z,5.85
2022-11-29T22:23:53.231Z,6.53
2022-11-29T22:26:21.393Z,6.13
2022-11-29T22:28:48.167Z,6.13
2022-11-29T22:31:14.879Z,6.68
2022-11-29T22:33:41.678Z,6.50
2022-11-29T22:36:11.836Z,6.13
2022-11-29T22:38:39.672Z,4.78
2022-11-29T22:41:10.663Z,6.22
2022-11-29T22:43:38.259Z,5.63
2022-11-29T22:46:12.401Z,5.15
2022-11-29T22:48:40.372Z,5.20
2022-11-29T22:51:28.255Z,6.38
2022-11-29T22:53:57.279Z,6.05
2022-11-29T22:56:26.504Z,6.35
2022-11-29T22:58:53.444Z,5.53
2022-11-29T23:01:22.342Z,5.13
2022-11-29T23:03:53.605Z,5.32
2022-11-29T23:06:41.773Z,6.10
2022-11-29T23:09:18.831Z,5.93
2022-11-29T23:11:46.294Z,5.82
2022-11-29T23:14:13.353Z,4.88
2022-11-29T23:16:40.270Z,6.00
2022-11-29T23:19:07.039Z,5.53
2022-11-29T23:21:36.594Z,4.97
2022-11-29T23:24:04.056Z,7.20
2022-11-29T23:26:37.520Z,6.85
2022-11-29T23:29:05.767Z,6.20
2022-11-29T23:31:33.603Z,6.35
2022-11-29T23:34:02.246Z,6.63
2022-11-29T23:36:29.153Z,6.63
2022-11-29T23:38:56.004Z,6.25
2022-11-29T23:41:22.740Z,6.28
2022-11-29T23:43:49.497Z,5.68
2022-11-29T23:46:22.001Z,5.13
2022-11-29T23:48:48.827Z,4.75
2022-11-29T23:51:16.106Z,4.72
2022-11-29T23:53:43.093Z,3.92
2022-11-29T23:56:16.299Z,4.10
2022-11-29T23:58:44.126Z,4.63
